Weather observations for the past three days for
Columbus/West Point/Starkville, Golden Triangle Regional Airport
Imperial (Metric)
Date Time (cdt) Wind (mph) Vis. (mi.) Weather Sky Cond. Temperature (ºF) Relative Humidity Wind Chill (°F) Heat Index (°F) Pressure Precipitation (in)
Air Dwpt 6 hour altimeter (in) sea level (mb) 1 hr 3 hr 6 hr
Max. Min.
04 18:56 NE 12 10.00 Fair CLR 93.9 72 100.9 93.9 49% 102 29.92 1013.2
04 17:56 E 5 10.00 Fair CLR 97 71.1 43% 105 29.92 1012.9
04 16:56 Vrbl 5 10.00 A Few Clouds FEW065 98.1 71.1 42% 106 29.91 1012.6
04 15:56 E 9 10.00 Partly Cloudy SCT065 98.1 72 43% 107 29.91 1012.8
04 14:56 Vrbl 7 10.00 Fair CLR 98.1 72 43% 107 29.94 1013.5
04 13:56 E 9 10.00 Fair CLR 98.1 71.1 42% 106 29.97 1014.5
04 12:56 NE 7 10.00 Fair CLR 97 73 97 75 46% 107 29.99 1015.2
04 11:56 E 9 10.00 Fair CLR 96.1 72 46% 105 30.02 1016.2
04 10:56 NE 6 10.00 Fair CLR 93.9 75.9 56% 107 30.03 1016.6
04 09:56 N 5 10.00 Fair CLR 89.1 78.1 70% 103 30.02 1016.5
04 08:56 NE 3 10.00 Fair CLR 84.9 75.9 75% 94 30.01 1016.2
04 07:56 NE 3 10.00 Fair CLR 78.1 75.9 93% 81 30.01 1016.0
04 06:56 NW 3 10.00 Fair CLR 73.9 73.9 75.9 73 100% 29.99 1015.6
04 05:56 N 3 10.00 Fair CLR 73.9 73.9 100% 29.99 1015.3
04 04:56 Calm 10.00 Fair CLR 73.9 73.9 100% 29.98 1015.0
04 03:56 Calm 10.00 Fair CLR 73.9 73 97% 29.97 1014.8
04 02:56 Calm 10.00 Fair CLR 75 73.9 96% 73 29.97 1014.6
04 01:56 Calm 10.00 Fair CLR 75.9 75 97% 75 29.96 1014.3
04 00:56 N 3 10.00 Fair CLR 75.9 73.9 82.9 75.9 94% 75 29.97 1014.6
03 23:56 Calm 10.00 Fair CLR 77 73.9 90% 78 29.97 1014.7
03 22:56 S 3 10.00 Fair CLR 77 73 88% 78 29.97 1014.6
03 21:56 Calm 10.00 Fair CLR 78.1 75 90% 81 29.98 1015.1
03 20:56 N 3 10.00 Fair CLR 80.1 75 85% 85 29.97 1014.9
03 19:56 N 3 10.00 Fair CLR 79 75.9 90% 83 29.96 1014.6
03 18:56 E 6 10.00 Fair CLR 82 75.9 100 82 82% 89 29.95 1014.0 0.01 0.01
03 17:56 E 18 10.00 Thunderstorm Light Rain FEW046 BKN075 OVC100 82.9 75.9 79% 91 29.95 1014.0
03 16:56 Vrbl 5 10.00 Fair CLR 98.1 72 43% 107 29.93 1013.3
03 15:56 S 9 10.00 A Few Clouds FEW070 97 70 42% 104 29.93 1013.3
03 14:56 SE 8 10.00 Fair CLR 99 71.1 41% 107 29.96 1014.2
03 13:56 Vrbl 5 10.00 Partly Cloudy FEW065 SCT100 98.1 70 40% 105 29.98 1014.9
03 12:56 SE 10 10.00 Partly Cloudy SCT060 SCT075 98.1 71.1 98.1 75 42% 106 30 1015.6
03 11:56 Vrbl 6 10.00 Fair CLR 97 72 45% 106 30.02 1016.4
03 10:56 N 7 10.00 Fair CLR 96.1 73 48% 106 30.03 1016.9
03 09:56 NE 6 10.00 Fair CLR 91 73.9 57% 101 30.03 1016.7
03 08:56 NE 5 10.00 Fair CLR 87.1 75 67% 97 30.04 1017.0
03 07:56 N 3 10.00 Fair CLR 82 77 85% 90 30.04 1017.1
03 06:56 Calm 10.00 Fair CLR 75 73 79 73.9 94% 73 30.03 1016.9
03 05:56 Calm 10.00 Fair CLR 75 72 90% 74 30.01 1016.2
03 04:56 Calm 10.00 Fair CLR 75.9 73 91% 76 30 1015.7
03 03:56 Calm 10.00 Fair CLR 77 73 88% 78 30.01 1015.9
03 02:56 Calm 10.00 Fair CLR 77 73 88% 78 30 1015.7
03 01:56 Calm 10.00 Fair CLR 77 73 88% 78 30.01 1015.9
03 00:56 Calm 10.00 Fair CLR 79 73 93.9 79 82% 82 30.01 1016.1
02 23:56 Calm 10.00 Fair CLR 82 73.9 77% 88 30.01 1016.1
02 22:56 Calm 10.00 Fair CLR 82.9 73 72% 89 30.01 1015.9
02 21:56 Calm 10.00 Fair CLR 82.9 73 72% 89 30.01 1016.0
02 20:56 SE 5 10.00 Fair CLR 86 73 65% 93 30 1015.9
02 19:56 SE 5 10.00 Fair CLR 91 71.1 52% 98 29.98 1015.2
02 18:56 SE 6 10.00 Fair CLR 93.9 70 100 93.9 46% 100 29.98 1015.0
02 17:56 E 9 10.00 Fair CLR 96.1 69.1 41% 102 29.98 1015.1
02 16:56 Vrbl 7 10.00 Fair CLR 97 69.1 40% 103 29.98 1015.2
02 15:56 Vrbl 6 10.00 A Few Clouds FEW070 97 69.1 40% 103 29.99 1015.4
02 14:56 SE 8 10.00 Fair CLR 100 70 38% 108 30.01 1016.1
02 13:56 Calm 10.00 A Few Clouds FEW070 98.1 68 38% 103 30.04 1016.9
02 12:56 E 9 10.00 Mostly Cloudy BKN065 98.1 69.1 98.1 72 39% 104 30.06 1017.7
02 11:56 NE 6 10.00 Partly Cloudy SCT055 98.1 72 43% 107 30.08 1018.5
02 10:56 NE 6 10.00 Fair CLR 95 73.9 51% 106 30.1 1019.1
02 09:56 NW 5 10.00 Fair CLR 90 73.9 59% 99 30.1 1019.1
02 08:56 N 3 9.00 Fair CLR 86 73 65% 93 30.1 1019.1
02 07:56 S 5 10.00 Fair CLR 78.1 73.9 87% 81 30.1 1019.2
02 06:56 Calm 10.00 Fair CLR 72 71.1 82 71.1 97% 30.09 1018.7
02 05:56 Calm 10.00 Fair CLR 73.9 72 94% 30.06 1018.0
02 04:56 Calm 10.00 Fair CLR 73.9 71.1 91% 30.05 1017.6
02 03:56 Calm 10.00 Fair CLR 75 71.1 88% 75 30.04 1017.1
02 02:56 Calm 10.00 Fair CLR 75.9 71.1 85% 76 30.04 1016.9
02 01:56 Calm 10.00 Fair CLR 78.1 72 82% 80 30.04 1016.9
02 00:56 E 5 10.00 Fair CLR 82 72 91.9 80.1 72% 87 30.04 1016.9
01 23:56 E 6 10.00 Fair CLR 84 72 67% 90 30.04 1017.1
01 22:56 E 6 10.00 Fair CLR 84 72 67% 90 30.05 1017.3
01 21:56 Calm 10.00 Fair CLR 82 72 72% 87 30.05 1017.3
01 20:56 Calm 10.00 Fair CLR 84 72 67% 90 30.02 1016.4
01 19:56 SE 3 10.00 Fair CLR 87.1 71.1 59% 93 30.01 1015.9
Date Time (cdt) Wind (mph) Vis. (mi.) Weather Sky Cond. Air Dwpt Max. Min. Relative Humidity Wind Chill (°F) Heat Index (°F) altimeter (in) sea level (mb) 1 hr 3 hr 6 hr
6 hour
Temperature (ºF) Pressure Precipitation (in)